sensor_id;sensor_type;location;lat;lon;timestamp;temperature;humidity
65854;DHT22;52627;48.838;2.402;2024-03-23T00:54:33;10.72;73.99
65854;DHT22;52627;48.838;2.402;2024-03-23T00:57:01;10.71;73.97
65854;DHT22;52627;48.838;2.402;2024-03-23T00:59:28;10.70;73.99
65854;DHT22;52627;48.838;2.402;2024-03-23T01:01:55;10.68;73.98
65854;DHT22;52627;48.838;2.402;2024-03-23T01:04:22;10.70;74.02
65854;DHT22;52627;48.838;2.402;2024-03-23T01:06:50;10.70;74.06
65854;DHT22;52627;48.838;2.402;2024-03-23T01:09:17;10.70;74.09
65854;DHT22;52627;48.838;2.402;2024-03-23T01:11:45;10.71;74.10
65854;DHT22;52627;48.838;2.402;2024-03-23T01:14:12;10.71;74.05
65854;DHT22;52627;48.838;2.402;2024-03-23T01:16:39;10.72;74.00
65854;DHT22;52627;48.838;2.402;2024-03-23T01:19:06;10.71;74.00
65854;DHT22;52627;48.838;2.402;2024-03-23T01:21:34;10.71;74.00
65854;DHT22;52627;48.838;2.402;2024-03-23T01:24:02;10.70;74.02
65854;DHT22;52627;48.838;2.402;2024-03-23T01:26:29;10.71;74.00
65854;DHT22;52627;48.838;2.402;2024-03-23T01:28:56;10.72;74.01
65854;DHT22;52627;48.838;2.402;2024-03-23T01:31:24;10.73;74.00
65854;DHT22;52627;48.838;2.402;2024-03-23T01:33:51;10.72;74.01
65854;DHT22;52627;48.838;2.402;2024-03-23T01:36:19;10.72;74.00
65854;DHT22;52627;48.838;2.402;2024-03-23T01:38:46;10.72;74.00
65854;DHT22;52627;48.838;2.402;2024-03-23T01:41:14;10.71;74.00
65854;DHT22;52627;48.838;2.402;2024-03-23T01:43:41;10.71;73.99
65854;DHT22;52627;48.838;2.402;2024-03-23T01:46:08;10.70;74.01
65854;DHT22;52627;48.838;2.402;2024-03-23T01:48:36;10.70;74.00
65854;DHT22;52627;48.838;2.402;2024-03-23T01:51:04;10.70;74.00
65854;DHT22;52627;48.838;2.402;2024-03-23T01:53:31;10.69;73.96
65854;DHT22;52627;48.838;2.402;2024-03-23T01:55:59;10.70;73.95
65854;DHT22;52627;48.838;2.402;2024-03-23T01:58:26;10.70;73.91
65854;DHT22;52627;48.838;2.402;2024-03-23T02:00:53;10.70;73.88
65854;DHT22;52627;48.838;2.402;2024-03-23T02:03:24;10.70;73.90
65854;DHT22;52627;48.838;2.402;2024-03-23T02:05:54;10.72;73.88
65854;DHT22;52627;48.838;2.402;2024-03-23T02:08:23;10.71;73.81
65854;DHT22;52627;48.838;2.402;2024-03-23T02:10:51;10.70;73.72
65854;DHT22;52627;48.838;2.402;2024-03-23T02:13:18;10.69;73.72
65854;DHT22;52627;48.838;2.402;2024-03-23T02:15:46;10.70;73.71
65854;DHT22;52627;48.838;2.402;2024-03-23T02:18:14;10.70;73.69
65854;DHT22;52627;48.838;2.402;2024-03-23T02:20:41;10.68;73.60
65854;DHT22;52627;48.838;2.402;2024-03-23T02:23:17;10.67;73.59
65854;DHT22;52627;48.838;2.402;2024-03-23T02:25:45;10.66;73.50
65854;DHT22;52627;48.838;2.402;2024-03-23T02:28:12;10.66;73.47
65854;DHT22;52627;48.838;2.402;2024-03-23T02:30:39;10.65;73.32
65854;DHT22;52627;48.838;2.402;2024-03-23T02:33:07;10.64;73.26
65854;DHT22;52627;48.838;2.402;2024-03-23T02:35:34;10.64;73.20
65854;DHT22;52627;48.838;2.402;2024-03-23T02:38:02;10.64;73.08
65854;DHT22;52627;48.838;2.402;2024-03-23T02:40:29;10.62;73.07
65854;DHT22;52627;48.838;2.402;2024-03-23T02:42:57;10.61;73.02
65854;DHT22;52627;48.838;2.402;2024-03-23T02:45:24;10.62;73.01
65854;DHT22;52627;48.838;2.402;2024-03-23T02:47:52;10.60;73.00
65854;DHT22;52627;48.838;2.402;2024-03-23T02:50:19;10.59;73.11
65854;DHT22;52627;48.838;2.402;2024-03-23T02:52:47;10.56;73.05
65854;DHT22;52627;48.838;2.402;2024-03-23T02:55:15;10.55;73.01
65854;DHT22;52627;48.838;2.402;2024-03-23T02:57:43;10.51;72.94
65854;DHT22;52627;48.838;2.402;2024-03-23T03:00:10;10.48;72.88
65854;DHT22;52627;48.838;2.402;2024-03-23T03:02:40;10.43;72.81
65854;DHT22;52627;48.838;2.402;2024-03-23T03:05:07;10.41;72.82
65854;DHT22;52627;48.838;2.402;2024-03-23T03:07:35;10.38;72.75
65854;DHT22;52627;48.838;2.402;2024-03-23T03:10:06;10.36;72.74
65854;DHT22;52627;48.838;2.402;2024-03-23T03:12:37;10.34;72.63
65854;DHT22;52627;48.838;2.402;2024-03-23T03:15:05;10.30;72.53
65854;DHT22;52627;48.838;2.402;2024-03-23T03:17:33;10.26;72.49
65854;DHT22;52627;48.838;2.402;2024-03-23T03:20:00;10.24;72.40
65854;DHT22;52627;48.838;2.402;2024-03-23T03:22:27;10.19;72.33
65854;DHT22;52627;48.838;2.402;2024-03-23T03:24:55;10.14;72.11
65854;DHT22;52627;48.838;2.402;2024-03-23T03:27:23;10.10;72.04
65854;DHT22;52627;48.838;2.402;2024-03-23T03:29:50;10.05;71.88
65854;DHT22;52627;48.838;2.402;2024-03-23T03:32:18;10.01;71.87
65854;DHT22;52627;48.838;2.402;2024-03-23T03:34:45;9.99;71.87
65854;DHT22;52627;48.838;2.402;2024-03-23T03:37:12;9.96;71.72
65854;DHT22;52627;48.838;2.402;2024-03-23T03:39:40;9.93;71.64
65854;DHT22;52627;48.838;2.402;2024-03-23T03:42:07;9.88;71.47
65854;DHT22;52627;48.838;2.402;2024-03-23T03:44:35;9.83;71.42
65854;DHT22;52627;48.838;2.402;2024-03-23T03:47:03;9.79;71.31
65854;DHT22;52627;48.838;2.402;2024-03-23T03:49:32;9.76;71.29
65854;DHT22;52627;48.838;2.402;2024-03-23T03:51:59;9.71;71.21
65854;DHT22;52627;48.838;2.402;2024-03-23T03:54:29;9.69;71.20
65854;DHT22;52627;48.838;2.402;2024-03-23T03:56:56;9.68;71.20
65854;DHT22;52627;48.838;2.402;2024-03-23T03:59:23;9.65;71.10
65854;DHT22;52627;48.838;2.402;2024-03-23T04:01:51;9.62;71.02
65854;DHT22;52627;48.838;2.402;2024-03-23T04:04:18;9.59;70.92
65854;DHT22;52627;48.838;2.402;2024-03-23T04:06:45;9.57;70.92
65854;DHT22;52627;48.838;2.402;2024-03-23T04:09:13;9.56;70.90
65854;DHT22;52627;48.838;2.402;2024-03-23T04:11:40;9.54;70.88
65854;DHT22;52627;48.838;2.402;2024-03-23T04:14:08;9.53;70.90
65854;DHT22;52627;48.838;2.402;2024-03-23T04:16:35;9.52;70.82
65854;DHT22;52627;48.838;2.402;2024-03-23T04:19:03;9.50;70.80
65854;DHT22;52627;48.838;2.402;2024-03-23T04:21:31;9.48;70.80
65854;DHT22;52627;48.838;2.402;2024-03-23T04:23:58;9.47;70.80
65854;DHT22;52627;48.838;2.402;2024-03-23T04:26:25;9.46;70.75
65854;DHT22;52627;48.838;2.402;2024-03-23T04:28:53;9.45;70.72
65854;DHT22;52627;48.838;2.402;2024-03-23T04:31:21;9.43;70.73
65854;DHT22;52627;48.838;2.402;2024-03-23T04:33:48;9.41;70.69
65854;DHT22;52627;48.838;2.402;2024-03-23T04:36:16;9.38;70.65
65854;DHT22;52627;48.838;2.402;2024-03-23T04:38:43;9.36;70.62
65854;DHT22;52627;48.838;2.402;2024-03-23T04:41:16;9.32;70.63
65854;DHT22;52627;48.838;2.402;2024-03-23T04:43:44;9.31;70.63
65854;DHT22;52627;48.838;2.402;2024-03-23T04:46:11;9.28;70.60
65854;DHT22;52627;48.838;2.402;2024-03-23T04:48:39;9.27;70.54
65854;DHT22;52627;48.838;2.402;2024-03-23T04:51:06;9.23;70.56
65854;DHT22;52627;48.838;2.402;2024-03-23T04:53:33;9.21;70.57
65854;DHT22;52627;48.838;2.402;2024-03-23T04:56:01;9.20;70.59
65854;DHT22;52627;48.838;2.402;2024-03-23T04:58:29;9.18;70.60
65854;DHT22;52627;48.838;2.402;2024-03-23T05:00:56;9.15;70.57
65854;DHT22;52627;48.838;2.402;2024-03-23T05:03:24;9.10;70.52
65854;DHT22;52627;48.838;2.402;2024-03-23T05:05:51;9.05;70.54
65854;DHT22;52627;48.838;2.402;2024-03-23T05:08:20;8.99;70.59
65854;DHT22;52627;48.838;2.402;2024-03-23T05:10:47;8.95;70.56
65854;DHT22;52627;48.838;2.402;2024-03-23T05:13:15;8.92;70.60
65854;DHT22;52627;48.838;2.402;2024-03-23T05:15:42;8.90;70.60
65854;DHT22;52627;48.838;2.402;2024-03-23T05:18:10;8.88;70.65
65854;DHT22;52627;48.838;2.402;2024-03-23T05:20:37;8.87;70.63
65854;DHT22;52627;48.838;2.402;2024-03-23T05:23:05;8.84;70.60
65854;DHT22;52627;48.838;2.402;2024-03-23T05:25:32;8.82;70.60
65854;DHT22;52627;48.838;2.402;2024-03-23T05:28:01;8.82;70.60
65854;DHT22;52627;48.838;2.402;2024-03-23T05:30:28;8.80;70.60
65854;DHT22;52627;48.838;2.402;2024-03-23T05:32:56;8.81;70.55
65854;DHT22;52627;48.838;2.402;2024-03-23T05:35:23;8.77;70.47
65854;DHT22;52627;48.838;2.402;2024-03-23T05:37:51;8.73;70.39
65854;DHT22;52627;48.838;2.402;2024-03-23T05:40:18;8.70;70.33
65854;DHT22;52627;48.838;2.402;2024-03-23T05:42:46;8.67;70.31
65854;DHT22;52627;48.838;2.402;2024-03-23T05:45:13;8.66;70.24
65854;DHT22;52627;48.838;2.402;2024-03-23T05:47:41;8.67;70.22
65854;DHT22;52627;48.838;2.402;2024-03-23T05:50:08;8.68;70.14
65854;DHT22;52627;48.838;2.402;2024-03-23T05:52:39;8.67;70.10
65854;DHT22;52627;48.838;2.402;2024-03-23T05:55:07;8.65;70.09
65854;DHT22;52627;48.838;2.402;2024-03-23T05:57:35;8.63;70.00
65854;DHT22;52627;48.838;2.402;2024-03-23T06:00:02;8.61;69.96
65854;DHT22;52627;48.838;2.402;2024-03-23T06:02:31;8.59;69.91
65854;DHT22;52627;48.838;2.402;2024-03-23T06:04:58;8.57;69.91
65854;DHT22;52627;48.838;2.402;2024-03-23T06:07:25;8.57;69.90
65854;DHT22;52627;48.838;2.402;2024-03-23T06:09:53;8.57;69.82
65854;DHT22;52627;48.838;2.402;2024-03-23T06:12:20;8.57;69.80
65854;DHT22;52627;48.838;2.402;2024-03-23T06:14:48;8.57;69.84
65854;DHT22;52627;48.838;2.402;2024-03-23T06:17:16;8.60;69.80
65854;DHT22;52627;48.838;2.402;2024-03-23T06:19:44;8.60;69.80
65854;DHT22;52627;48.838;2.402;2024-03-23T06:22:12;8.63;69.79
65854;DHT22;52627;48.838;2.402;2024-03-23T06:24:40;8.64;69.80
65854;DHT22;52627;48.838;2.402;2024-03-23T06:27:07;8.65;69.80
65854;DHT22;52627;48.838;2.402;2024-03-23T06:29:35;8.68;69.80
65854;DHT22;52627;48.838;2.402;2024-03-23T06:32:03;8.67;69.72
65854;DHT22;52627;48.838;2.402;2024-03-23T06:34:31;8.68;69.70
65854;DHT22;52627;48.838;2.402;2024-03-23T06:36:58;8.71;69.72
65854;DHT22;52627;48.838;2.402;2024-03-23T06:39:25;8.75;69.78
65854;DHT22;52627;48.838;2.402;2024-03-23T06:41:53;8.80;69.71
65854;DHT22;52627;48.838;2.402;2024-03-23T06:44:21;8.81;69.63
65854;DHT22;52627;48.838;2.402;2024-03-23T06:46:49;8.84;69.55
65854;DHT22;52627;48.838;2.402;2024-03-23T06:49:17;8.84;69.50
65854;DHT22;52627;48.838;2.402;2024-03-23T06:51:47;8.87;69.41
65854;DHT22;52627;48.838;2.402;2024-03-23T06:54:16;8.90;69.38
65854;DHT22;52627;48.838;2.402;2024-03-23T06:56:44;8.92;69.31
65854;DHT22;52627;48.838;2.402;2024-03-23T06:59:12;8.97;69.32
65854;DHT22;52627;48.838;2.402;2024-03-23T07:01:39;9.05;69.30
65854;DHT22;52627;48.838;2.402;2024-03-23T07:04:07;9.17;69.28
65854;DHT22;52627;48.838;2.402;2024-03-23T07:06:41;9.28;69.23
65854;DHT22;52627;48.838;2.402;2024-03-23T07:09:11;9.28;69.40
65854;DHT22;52627;48.838;2.402;2024-03-23T07:11:38;9.21;69.91
65854;DHT22;52627;48.838;2.402;2024-03-23T07:14:06;9.08;70.93
65854;DHT22;52627;48.838;2.402;2024-03-23T07:16:34;8.91;71.31
65854;DHT22;52627;48.838;2.402;2024-03-23T07:19:01;8.71;71.85
65854;DHT22;52627;48.838;2.402;2024-03-23T07:21:28;8.51;71.98
65854;DHT22;52627;48.838;2.402;2024-03-23T07:23:56;8.31;72.02
65854;DHT22;52627;48.838;2.402;2024-03-23T07:26:23;8.12;72.14
65854;DHT22;52627;48.838;2.402;2024-03-23T07:28:51;7.98;72.42
65854;DHT22;52627;48.838;2.402;2024-03-23T07:31:19;7.93;72.64
65854;DHT22;52627;48.838;2.402;2024-03-23T07:33:48;7.87;72.84
65854;DHT22;52627;48.838;2.402;2024-03-23T07:36:16;7.84;72.92
65854;DHT22;52627;48.838;2.402;2024-03-23T07:38:43;7.82;73.09
65854;DHT22;52627;48.838;2.402;2024-03-23T07:41:25;7.83;73.16
65854;DHT22;52627;48.838;2.402;2024-03-23T07:43:54;7.85;73.20
65854;DHT22;52627;48.838;2.402;2024-03-23T07:46:21;7.89;73.27
65854;DHT22;52627;48.838;2.402;2024-03-23T07:48:49;7.95;73.39
65854;DHT22;52627;48.838;2.402;2024-03-23T07:51:17;8.03;73.56
65854;DHT22;52627;48.838;2.402;2024-03-23T07:53:48;8.13;73.64
65854;DHT22;52627;48.838;2.402;2024-03-23T07:56:15;8.21;73.75
65854;DHT22;52627;48.838;2.402;2024-03-23T07:58:45;8.31;73.80
65854;DHT22;52627;48.838;2.402;2024-03-23T08:01:13;8.43;73.83
65854;DHT22;52627;48.838;2.402;2024-03-23T08:03:45;8.60;73.84
65854;DHT22;52627;48.838;2.402;2024-03-23T08:06:14;8.82;73.90
65854;DHT22;52627;48.838;2.402;2024-03-23T08:08:47;8.98;73.80
65854;DHT22;52627;48.838;2.402;2024-03-23T08:11:26;9.11;73.55
65854;DHT22;52627;48.838;2.402;2024-03-23T08:13:54;9.40;73.50
65854;DHT22;52627;48.838;2.402;2024-03-23T08:16:23;9.82;73.29
65854;DHT22;52627;48.838;2.402;2024-03-23T08:18:51;10.37;73.19
65854;DHT22;52627;48.838;2.402;2024-03-23T08:21:19;11.01;73.26
65854;DHT22;52627;48.838;2.402;2024-03-23T08:23:46;11.67;72.74
65854;DHT22;52627;48.838;2.402;2024-03-23T08:26:15;12.36;72.79
65854;DHT22;52627;48.838;2.402;2024-03-23T08:28:43;13.04;72.08
65854;DHT22;52627;48.838;2.402;2024-03-23T08:31:11;13.68;71.41
65854;DHT22;52627;48.838;2.402;2024-03-23T08:33:40;14.17;70.64
65854;DHT22;52627;48.838;2.402;2024-03-23T08:36:10;14.50;69.82
65854;DHT22;52627;48.838;2.402;2024-03-23T08:38:41;14.51;69.14
65854;DHT22;52627;48.838;2.402;2024-03-23T08:41:09;14.57;68.50
65854;DHT22;52627;48.838;2.402;2024-03-23T08:43:39;14.68;67.70
65854;DHT22;52627;48.838;2.402;2024-03-23T08:46:12;14.84;67.53
65854;DHT22;52627;48.838;2.402;2024-03-23T08:48:45;14.81;67.01
65854;DHT22;52627;48.838;2.402;2024-03-23T08:51:16;14.51;66.10
65854;DHT22;52627;48.838;2.402;2024-03-23T08:53:44;14.20;65.81
65854;DHT22;52627;48.838;2.402;2024-03-23T08:56:12;13.98;65.37
65854;DHT22;52627;48.838;2.402;2024-03-23T08:58:40;13.82;64.90
65854;DHT22;52627;48.838;2.402;2024-03-23T09:01:08;13.71;64.58
65854;DHT22;52627;48.838;2.402;2024-03-23T09:03:37;13.69;64.27
65854;DHT22;52627;48.838;2.402;2024-03-23T09:06:08;13.63;64.06
65854;DHT22;52627;48.838;2.402;2024-03-23T09:08:38;13.73;63.46
65854;DHT22;52627;48.838;2.402;2024-03-23T09:11:08;13.87;63.10
65854;DHT22;52627;48.838;2.402;2024-03-23T09:13:38;14.07;62.91
65854;DHT22;52627;48.838;2.402;2024-03-23T09:16:06;14.41;62.43
65854;DHT22;52627;48.838;2.402;2024-03-23T09:18:36;14.72;62.26
65854;DHT22;52627;48.838;2.402;2024-03-23T09:21:04;14.81;61.66
65854;DHT22;52627;48.838;2.402;2024-03-23T09:23:40;14.84;61.08
65854;DHT22;52627;48.838;2.402;2024-03-23T09:26:10;14.80;60.82
65854;DHT22;52627;48.838;2.402;2024-03-23T09:28:37;14.94;60.38
65854;DHT22;52627;48.838;2.402;2024-03-23T09:31:05;14.87;59.79
65854;DHT22;52627;48.838;2.402;2024-03-23T09:33:35;14.74;59.45
65854;DHT22;52627;48.838;2.402;2024-03-23T09:36:03;14.80;59.20
65854;DHT22;52627;48.838;2.402;2024-03-23T09:38:32;14.76;58.96
65854;DHT22;52627;48.838;2.402;2024-03-23T09:41:00;15.00;58.79
65854;DHT22;52627;48.838;2.402;2024-03-23T09:43:27;15.23;58.63
65854;DHT22;52627;48.838;2.402;2024-03-23T09:45:54;15.23;58.21
65854;DHT22;52627;48.838;2.402;2024-03-23T09:48:22;15.03;57.72
65854;DHT22;52627;48.838;2.402;2024-03-23T09:50:49;14.68;58.07
65854;DHT22;52627;48.838;2.402;2024-03-23T09:53:17;14.23;58.10
65854;DHT22;52627;48.838;2.402;2024-03-23T09:55:44;13.81;58.25
65854;DHT22;52627;48.838;2.402;2024-03-23T09:58:12;13.63;58.40
65854;DHT22;52627;48.838;2.402;2024-03-23T10:00:42;13.68;58.48
65854;DHT22;52627;48.838;2.402;2024-03-23T10:03:10;14.09;58.20
65854;DHT22;52627;48.838;2.402;2024-03-23T10:05:38;14.65;58.03
65854;DHT22;52627;48.838;2.402;2024-03-23T10:10:41;15.58;57.16
65854;DHT22;52627;48.838;2.402;2024-03-23T10:13:09;16.09;56.97
65854;DHT22;52627;48.838;2.402;2024-03-23T10:15:39;16.38;55.96
65854;DHT22;52627;48.838;2.402;2024-03-23T10:23:39;16.87;54.69
65854;DHT22;52627;48.838;2.402;2024-03-23T10:28:50;17.29;54.16
65854;DHT22;52627;48.838;2.402;2024-03-23T10:31:34;17.76;53.67
65854;DHT22;52627;48.838;2.402;2024-03-23T10:34:03;18.09;52.88
65854;DHT22;52627;48.838;2.402;2024-03-23T10:36:30;18.26;52.11
65854;DHT22;52627;48.838;2.402;2024-03-23T10:38:58;18.54;52.03
65854;DHT22;52627;48.838;2.402;2024-03-23T10:41:29;18.84;51.77
65854;DHT22;52627;48.838;2.402;2024-03-23T10:43:59;19.19;51.20
65854;DHT22;52627;48.838;2.402;2024-03-23T10:46:29;19.47;50.37
65854;DHT22;52627;48.838;2.402;2024-03-23T10:48:57;19.59;50.03
65854;DHT22;52627;48.838;2.402;2024-03-23T10:51:25;19.71;48.88
65854;DHT22;52627;48.838;2.402;2024-03-23T10:53:53;19.80;48.36
65854;DHT22;52627;48.838;2.402;2024-03-23T10:56:24;19.96;48.32
65854;DHT22;52627;48.838;2.402;2024-03-23T10:58:56;20.28;47.85
65854;DHT22;52627;48.838;2.402;2024-03-23T11:01:23;20.32;47.34
65854;DHT22;52627;48.838;2.402;2024-03-23T11:03:51;20.28;46.69
65854;DHT22;52627;48.838;2.402;2024-03-23T11:09:04;19.79;44.61
65854;DHT22;52627;48.838;2.402;2024-03-23T11:14:54;19.04;43.44
65854;DHT22;52627;48.838;2.402;2024-03-23T11:17:27;18.86;43.00
65854;DHT22;52627;48.838;2.402;2024-03-23T11:19:59;18.93;42.73
65854;DHT22;52627;48.838;2.402;2024-03-23T11:25:21;18.50;41.69
65854;DHT22;52627;48.838;2.402;2024-03-23T11:27:53;18.00;41.39
65854;DHT22;52627;48.838;2.402;2024-03-23T11:30:26;17.65;41.18
65854;DHT22;52627;48.838;2.402;2024-03-23T11:32:57;17.59;41.06
65854;DHT22;52627;48.838;2.402;2024-03-23T11:35:34;17.33;41.04
65854;DHT22;52627;48.838;2.402;2024-03-23T11:40:42;17.02;41.36
65854;DHT22;52627;48.838;2.402;2024-03-23T11:43:13;17.17;41.60
65854;DHT22;52627;48.838;2.402;2024-03-23T11:45:45;17.36;41.46
65854;DHT22;52627;48.838;2.402;2024-03-23T11:48:16;17.55;41.19
65854;DHT22;52627;48.838;2.402;2024-03-23T11:50:46;17.70;41.26
65854;DHT22;52627;48.838;2.402;2024-03-23T11:53:20;17.98;41.02
65854;DHT22;52627;48.838;2.402;2024-03-23T11:55:50;18.11;40.54
65854;DHT22;52627;48.838;2.402;2024-03-23T11:58:20;18.18;40.02
65854;DHT22;52627;48.838;2.402;2024-03-23T12:00:49;18.26;39.69
65854;DHT22;52627;48.838;2.402;2024-03-23T12:03:26;18.40;39.50
65854;DHT22;52627;48.838;2.402;2024-03-23T12:05:58;18.46;39.28
65854;DHT22;52627;48.838;2.402;2024-03-23T12:11:11;18.64;38.91
65854;DHT22;52627;48.838;2.402;2024-03-23T12:13:42;18.57;38.69
65854;DHT22;52627;48.838;2.402;2024-03-23T12:16:16;18.17;38.43
65854;DHT22;52627;48.838;2.402;2024-03-23T12:18:45;17.87;38.41
65854;DHT22;52627;48.838;2.402;2024-03-23T12:21:16;17.61;38.30
65854;DHT22;52627;48.838;2.402;2024-03-23T12:23:44;17.28;38.33
65854;DHT22;52627;48.838;2.402;2024-03-23T12:26:13;16.96;38.10
65854;DHT22;52627;48.838;2.402;2024-03-23T12:28:42;16.77;38.00
65854;DHT22;52627;48.838;2.402;2024-03-23T12:31:10;16.90;38.03
65854;DHT22;52627;48.838;2.402;2024-03-23T12:33:37;17.10;37.93
65854;DHT22;52627;48.838;2.402;2024-03-23T12:36:05;17.27;38.04
65854;DHT22;52627;48.838;2.402;2024-03-23T12:38:32;17.35;38.17
65854;DHT22;52627;48.838;2.402;2024-03-23T12:41:00;17.42;38.38
65854;DHT22;52627;48.838;2.402;2024-03-23T12:43:27;17.49;38.42
65854;DHT22;52627;48.838;2.402;2024-03-23T12:45:54;17.51;38.54
65854;DHT22;52627;48.838;2.402;2024-03-23T12:48:22;17.33;38.30
65854;DHT22;52627;48.838;2.402;2024-03-23T12:50:49;16.99;38.48
65854;DHT22;52627;48.838;2.402;2024-03-23T12:53:22;16.64;39.12
65854;DHT22;52627;48.838;2.402;2024-03-23T12:55:49;16.31;39.46
65854;DHT22;52627;48.838;2.402;2024-03-23T12:58:16;16.08;39.63
65854;DHT22;52627;48.838;2.402;2024-03-23T13:00:44;16.00;39.63
65854;DHT22;52627;48.838;2.402;2024-03-23T13:03:13;15.87;39.80
65854;DHT22;52627;48.838;2.402;2024-03-23T13:05:42;15.75;39.95
65854;DHT22;52627;48.838;2.402;2024-03-23T13:08:10;15.67;39.95
65854;DHT22;52627;48.838;2.402;2024-03-23T13:10:37;15.61;40.05
65854;DHT22;52627;48.838;2.402;2024-03-23T13:13:04;15.55;40.09
65854;DHT22;52627;48.838;2.402;2024-03-23T13:15:32;15.49;39.92
65854;DHT22;52627;48.838;2.402;2024-03-23T13:18:00;15.38;39.88
65854;DHT22;52627;48.838;2.402;2024-03-23T13:20:27;15.29;40.10
65854;DHT22;52627;48.838;2.402;2024-03-23T13:22:54;15.21;40.12
65854;DHT22;52627;48.838;2.402;2024-03-23T13:25:22;15.12;40.20
65854;DHT22;52627;48.838;2.402;2024-03-23T13:27:49;15.04;40.37
65854;DHT22;52627;48.838;2.402;2024-03-23T13:30:16;14.88;40.73
65854;DHT22;52627;48.838;2.402;2024-03-23T13:32:44;14.71;41.67
65854;DHT22;52627;48.838;2.402;2024-03-23T13:35:14;14.41;43.50
65854;DHT22;52627;48.838;2.402;2024-03-23T13:37:42;14.06;45.18
65854;DHT22;52627;48.838;2.402;2024-03-23T13:40:10;13.73;45.99
65854;DHT22;52627;48.838;2.402;2024-03-23T13:42:38;13.38;46.31
65854;DHT22;52627;48.838;2.402;2024-03-23T13:45:06;13.14;46.87
65854;DHT22;52627;48.838;2.402;2024-03-23T13:47:37;12.98;47.47
65854;DHT22;52627;48.838;2.402;2024-03-23T13:50:05;12.80;47.82
65854;DHT22;52627;48.838;2.402;2024-03-23T13:52:34;12.50;48.29
65854;DHT22;52627;48.838;2.402;2024-03-23T13:55:02;12.17;48.95
65854;DHT22;52627;48.838;2.402;2024-03-23T13:57:29;11.85;49.97
65854;DHT22;52627;48.838;2.402;2024-03-23T13:59:57;11.56;50.50
65854;DHT22;52627;48.838;2.402;2024-03-23T14:02:24;11.28;51.05
65854;DHT22;52627;48.838;2.402;2024-03-23T14:04:52;11.04;51.59
65854;DHT22;52627;48.838;2.402;2024-03-23T14:07:19;10.81;52.24
65854;DHT22;52627;48.838;2.402;2024-03-23T14:09:47;10.60;52.91
65854;DHT22;52627;48.838;2.402;2024-03-23T14:12:14;10.48;52.96
65854;DHT22;52627;48.838;2.402;2024-03-23T14:14:41;10.55;53.14
65854;DHT22;52627;48.838;2.402;2024-03-23T14:17:09;10.72;53.19
65854;DHT22;52627;48.838;2.402;2024-03-23T14:19:38;10.88;53.31
65854;DHT22;52627;48.838;2.402;2024-03-23T14:22:05;11.03;53.36
65854;DHT22;52627;48.838;2.402;2024-03-23T14:24:33;11.11;53.31
65854;DHT22;52627;48.838;2.402;2024-03-23T14:27:00;11.16;53.40
65854;DHT22;52627;48.838;2.402;2024-03-23T14:29:31;11.22;53.41
65854;DHT22;52627;48.838;2.402;2024-03-23T14:32:02;11.23;53.48
65854;DHT22;52627;48.838;2.402;2024-03-23T14:34:30;11.23;53.57
65854;DHT22;52627;48.838;2.402;2024-03-23T14:36:57;11.23;53.84
65854;DHT22;52627;48.838;2.402;2024-03-23T14:39:25;11.25;54.10
65854;DHT22;52627;48.838;2.402;2024-03-23T14:41:53;11.27;54.21
65854;DHT22;52627;48.838;2.402;2024-03-23T14:44:21;11.29;54.32
65854;DHT22;52627;48.838;2.402;2024-03-23T14:46:49;11.35;54.49
65854;DHT22;52627;48.838;2.402;2024-03-23T14:49:16;11.40;54.70
65854;DHT22;52627;48.838;2.402;2024-03-23T14:51:44;11.43;54.86
65854;DHT22;52627;48.838;2.402;2024-03-23T14:54:12;11.45;55.10
65854;DHT22;52627;48.838;2.402;2024-03-23T14:56:45;11.45;55.55
65854;DHT22;52627;48.838;2.402;2024-03-23T14:59:14;11.40;56.44
65854;DHT22;52627;48.838;2.402;2024-03-23T15:01:41;11.21;56.79
65854;DHT22;52627;48.838;2.402;2024-03-23T15:04:09;11.08;57.28
65854;DHT22;52627;48.838;2.402;2024-03-23T15:06:37;11.05;57.52
65854;DHT22;52627;48.838;2.402;2024-03-23T15:09:05;11.16;57.88
65854;DHT22;52627;48.838;2.402;2024-03-23T15:11:38;11.28;58.06
65854;DHT22;52627;48.838;2.402;2024-03-23T15:14:05;11.41;58.29
65854;DHT22;52627;48.838;2.402;2024-03-23T15:16:34;11.49;58.40
65854;DHT22;52627;48.838;2.402;2024-03-23T15:19:01;11.53;58.57
65854;DHT22;52627;48.838;2.402;2024-03-23T15:21:29;11.53;58.68
65854;DHT22;52627;48.838;2.402;2024-03-23T15:23:56;11.51;58.68
65854;DHT22;52627;48.838;2.402;2024-03-23T15:26:24;11.46;58.99
65854;DHT22;52627;48.838;2.402;2024-03-23T15:28:52;11.41;59.00
65854;DHT22;52627;48.838;2.402;2024-03-23T15:31:39;11.38;59.09
65854;DHT22;52627;48.838;2.402;2024-03-23T15:34:07;11.31;59.14
65854;DHT22;52627;48.838;2.402;2024-03-23T15:36:37;11.22;59.30
65854;DHT22;52627;48.838;2.402;2024-03-23T15:39:07;11.13;59.36
65854;DHT22;52627;48.838;2.402;2024-03-23T15:41:35;11.06;59.63
65854;DHT22;52627;48.838;2.402;2024-03-23T15:44:03;11.02;60.03
65854;DHT22;52627;48.838;2.402;2024-03-23T15:46:31;10.97;60.50
65854;DHT22;52627;48.838;2.402;2024-03-23T15:48:58;10.81;61.10
65854;DHT22;52627;48.838;2.402;2024-03-23T15:51:27;10.54;62.39
65854;DHT22;52627;48.838;2.402;2024-03-23T15:53:59;10.28;63.32
65854;DHT22;52627;48.838;2.402;2024-03-23T15:56:30;10.05;63.94
65854;DHT22;52627;48.838;2.402;2024-03-23T15:59:01;9.92;63.99
65854;DHT22;52627;48.838;2.402;2024-03-23T16:01:33;9.83;64.11
65854;DHT22;52627;48.838;2.402;2024-03-23T16:04:02;9.77;64.36
65854;DHT22;52627;48.838;2.402;2024-03-23T16:06:29;9.72;64.55
65854;DHT22;52627;48.838;2.402;2024-03-23T16:08:57;9.68;64.82
65854;DHT22;52627;48.838;2.402;2024-03-23T16:11:24;9.66;65.00
65854;DHT22;52627;48.838;2.402;2024-03-23T16:13:51;9.64;65.18
65854;DHT22;52627;48.838;2.402;2024-03-23T16:16:19;9.65;65.40
65854;DHT22;52627;48.838;2.402;2024-03-23T16:18:49;9.64;65.81
65854;DHT22;52627;48.838;2.402;2024-03-23T16:21:16;9.63;66.02
65854;DHT22;52627;48.838;2.402;2024-03-23T16:23:44;9.63;66.03
65854;DHT22;52627;48.838;2.402;2024-03-23T16:26:13;9.65;66.21
65854;DHT22;52627;48.838;2.402;2024-03-23T16:28:43;9.70;66.37
65854;DHT22;52627;48.838;2.402;2024-03-23T16:31:11;9.75;66.48
65854;DHT22;52627;48.838;2.402;2024-03-23T16:33:38;9.73;66.49
65854;DHT22;52627;48.838;2.402;2024-03-23T16:36:09;9.73;66.46
65854;DHT22;52627;48.838;2.402;2024-03-23T16:38:41;9.71;66.47
65854;DHT22;52627;48.838;2.402;2024-03-23T16:41:12;9.70;66.40
65854;DHT22;52627;48.838;2.402;2024-03-23T16:43:42;9.68;66.45
65854;DHT22;52627;48.838;2.402;2024-03-23T16:46:11;9.64;66.38
65854;DHT22;52627;48.838;2.402;2024-03-23T16:48:42;9.59;66.31
65854;DHT22;52627;48.838;2.402;2024-03-23T16:51:10;9.53;66.41
65854;DHT22;52627;48.838;2.402;2024-03-23T16:53:38;9.48;66.49
65854;DHT22;52627;48.838;2.402;2024-03-23T16:56:08;9.43;66.50
65854;DHT22;52627;48.838;2.402;2024-03-23T16:58:37;9.38;66.55
65854;DHT22;52627;48.838;2.402;2024-03-23T17:01:09;9.35;66.74
65854;DHT22;52627;48.838;2.402;2024-03-23T17:03:48;9.33;66.72